createdAt,value
2019-05-07T00:01:15.419Z,10.65
2019-05-07T00:03:42.694Z,10.20
2019-05-07T00:06:12.246Z,9.80
2019-05-07T00:08:39.145Z,10.20
2019-05-07T00:11:06.943Z,10.23
2019-05-07T00:13:33.897Z,10.55
2019-05-07T00:16:02.451Z,10.28
2019-05-07T00:18:32.007Z,10.32
2019-05-07T00:20:58.822Z,9.85
2019-05-07T00:23:26.236Z,10.72
2019-05-07T00:25:53.254Z,10.00
2019-05-07T00:28:20.195Z,9.80
2019-05-07T00:30:47.087Z,10.13
2019-05-07T00:33:14.115Z,10.20
2019-05-07T00:35:45.800Z,9.33
2019-05-07T00:38:15.067Z,9.20
2019-05-07T00:40:46.431Z,9.48
2019-05-07T00:43:18.243Z,9.33
2019-05-07T00:45:50.195Z,10.18
2019-05-07T00:48:17.257Z,10.20
2019-05-07T00:50:46.377Z,9.78
2019-05-07T00:53:13.936Z,10.23
2019-05-07T00:55:42.387Z,9.18
2019-05-07T00:58:09.613Z,9.40
2019-05-07T01:00:37.539Z,9.43
2019-05-07T01:03:04.799Z,10.15
2019-05-07T01:05:32.622Z,10.23
2019-05-07T01:08:02.361Z,10.15
2019-05-07T01:10:29.401Z,9.60
2019-05-07T01:12:58.915Z,9.13
2019-05-07T01:15:30.973Z,8.93
2019-05-07T01:17:55.166Z,9.80
2019-05-07T01:20:22.557Z,9.98
2019-05-07T01:22:49.812Z,9.83
2019-05-07T01:25:17.626Z,10.45
2019-05-07T01:27:44.874Z,9.20
2019-05-07T01:30:13.020Z,8.93
2019-05-07T01:32:47.814Z,10.25
2019-05-07T01:35:23.305Z,9.85
2019-05-07T01:37:52.436Z,10.10
2019-05-07T01:40:19.955Z,9.43
2019-05-07T01:42:47.083Z,9.98
2019-05-07T01:45:15.407Z,9.10
2019-05-07T01:47:42.601Z,9.20
2019-05-07T01:50:13.202Z,8.48
2019-05-07T01:52:39.795Z,8.20
2019-05-07T01:55:07.747Z,7.83
2019-05-07T01:57:35.455Z,8.20
2019-05-07T02:00:06.103Z,7.72
2019-05-07T02:02:35.211Z,8.50
2019-05-07T02:05:13.231Z,7.05
2019-05-07T02:07:42.975Z,7.80
2019-05-07T02:10:25.500Z,8.33
2019-05-07T02:12:53.093Z,7.83
2019-05-07T02:15:22.518Z,7.42
2019-05-07T02:17:49.844Z,7.95
2019-05-07T02:20:17.234Z,7.12
2019-05-07T02:22:44.635Z,6.62
2019-05-07T02:25:12.772Z,7.20
2019-05-07T02:27:42.070Z,7.65
2019-05-07T02:30:09.801Z,7.28
2019-05-07T02:32:36.787Z,8.73
2019-05-07T02:35:04.650Z,7.83
2019-05-07T02:37:46.494Z,8.28
2019-05-07T02:40:14.471Z,8.45
2019-05-07T02:42:44.241Z,8.50
2019-05-07T02:45:13.450Z,8.83
2019-05-07T02:47:43.778Z,7.85
2019-05-07T02:50:26.740Z,8.10
2019-05-07T02:52:58.715Z,7.85
2019-05-07T02:55:27.881Z,8.18
2019-05-07T02:57:55.383Z,8.10
2019-05-07T03:00:24.083Z,8.18
2019-05-07T03:02:53.086Z,8.70
2019-05-07T03:05:22.960Z,9.20
2019-05-07T03:07:49.991Z,8.83
2019-05-07T03:10:17.287Z,8.60
2019-05-07T03:12:44.680Z,9.08
2019-05-07T03:15:13.326Z,8.78
2019-05-07T03:17:42.936Z,9.00
2019-05-07T03:20:13.875Z,8.58
2019-05-07T03:22:42.807Z,9.20
2019-05-07T03:25:15.282Z,9.95
2019-05-07T03:27:43.229Z,8.90
2019-05-07T03:30:16.646Z,9.33
2019-05-07T03:32:56.131Z,9.80
2019-05-07T03:35:27.551Z,9.38
2019-05-07T03:37:54.833Z,8.98
2019-05-07T03:40:23.113Z,9.33
2019-05-07T03:42:53.211Z,9.25
2019-05-07T03:45:23.078Z,9.48
2019-05-07T03:47:54.180Z,9.40
2019-05-07T03:50:23.377Z,9.83
2019-05-07T03:52:50.674Z,10.05
2019-05-07T03:55:17.926Z,9.63
2019-05-07T03:57:45.123Z,8.65
2019-05-07T04:00:13.409Z,8.85
2019-05-07T04:02:43.913Z,8.65
2019-05-07T04:05:14.011Z,8.73
2019-05-07T04:07:43.005Z,9.35
2019-05-07T04:10:14.473Z,9.58
2019-05-07T04:12:40.399Z,10.25
2019-05-07T04:15:08.250Z,9.53
2019-05-07T04:17:35.499Z,9.35
2019-05-07T04:20:06.586Z,9.60
2019-05-07T04:22:34.840Z,9.68
2019-05-07T04:25:13.181Z,12.85
2019-05-07T04:27:52.745Z,11.20
2019-05-07T04:30:23.535Z,9.75
2019-05-07T04:32:53.138Z,9.40
2019-05-07T04:35:24.991Z,8.98
2019-05-07T04:37:53.298Z,9.40
2019-05-07T04:40:23.692Z,9.20
2019-05-07T04:42:49.624Z,10.45
2019-05-07T04:45:16.944Z,9.63
2019-05-07T04:47:47.887Z,9.33
2019-05-07T04:50:32.884Z,9.00
2019-05-07T04:52:43.983Z,9.18
2019-05-07T04:55:13.805Z,8.68
2019-05-07T04:57:43.522Z,9.88
2019-05-07T05:00:13.305Z,8.88
2019-05-07T05:02:58.389Z,9.60
2019-05-07T05:05:25.911Z,9.03
2019-05-07T05:07:53.654Z,9.30
2019-05-07T05:10:22.999Z,10.08
2019-05-07T05:12:53.392Z,9.28
2019-05-07T05:15:22.057Z,10.28
2019-05-07T05:17:51.489Z,9.80
2019-05-07T05:20:19.682Z,10.18
2019-05-07T05:22:48.687Z,9.38
2019-05-07T05:25:36.987Z,9.58
2019-05-07T05:28:04.289Z,10.28
2019-05-07T05:30:37.123Z,9.18
2019-05-07T05:33:04.478Z,10.20
2019-05-07T05:35:32.165Z,8.83
2019-05-07T05:37:59.484Z,9.05
2019-05-07T05:40:26.512Z,9.10
2019-05-07T05:43:03.434Z,9.03
2019-05-07T05:45:35.025Z,7.80
2019-05-07T05:48:07.434Z,8.25
2019-05-07T05:50:53.753Z,8.48
2019-05-07T05:53:38.038Z,8.25
2019-05-07T05:56:09.471Z,8.53
2019-05-07T05:58:52.696Z,8.10
2019-05-07T06:01:38.368Z,7.95
2019-05-07T06:04:07.266Z,7.33
2019-05-07T06:06:39.127Z,7.33
2019-05-07T06:09:12.217Z,7.65
2019-05-07T06:11:46.859Z,6.72
2019-05-07T06:14:22.262Z,7.08
2019-05-07T06:16:54.026Z,6.50
2019-05-07T06:19:22.607Z,7.60
2019-05-07T06:22:06.951Z,7.42
2019-05-07T06:24:40.049Z,8.00
2019-05-07T06:27:07.136Z,7.20
2019-05-07T06:29:34.145Z,7.22
2019-05-07T06:32:03.592Z,6.80
2019-05-07T06:34:30.395Z,7.75
2019-05-07T06:36:57.961Z,6.92
2019-05-07T06:39:27.055Z,7.70
2019-05-07T06:42:02.153Z,6.92
2019-05-07T06:44:29.128Z,7.47
2019-05-07T06:46:56.199Z,6.92
2019-05-07T06:49:23.199Z,7.00
2019-05-07T06:51:52.658Z,7.12
2019-05-07T06:54:19.126Z,7.12
2019-05-07T06:56:48.742Z,6.42
2019-05-07T06:59:16.934Z,7.00
2019-05-07T07:01:52.934Z,6.33
2019-05-07T07:04:22.611Z,6.62
2019-05-07T07:06:52.364Z,7.00
2019-05-07T07:09:18.862Z,6.50
2019-05-07T07:11:52.780Z,6.00
2019-05-07T07:14:19.915Z,6.70
2019-05-07T07:16:46.907Z,6.58
2019-05-07T07:19:14.135Z,6.75
2019-05-07T07:21:42.160Z,6.05
2019-05-07T07:24:09.548Z,6.50
2019-05-07T07:26:36.593Z,6.47
2019-05-07T07:29:04.445Z,6.05
2019-05-07T07:31:39.278Z,6.42
2019-05-07T07:34:07.353Z,7.05
2019-05-07T07:36:42.398Z,6.80
2019-05-07T07:39:09.848Z,7.28
2019-05-07T07:41:38.859Z,6.45
2019-05-07T07:44:06.398Z,6.75
2019-05-07T07:46:33.399Z,6.08
2019-05-07T07:49:07.997Z,6.92
2019-05-07T07:51:40.600Z,6.90
2019-05-07T07:53:58.319Z,6.80
2019-05-07T07:56:27.876Z,7.83
2019-05-07T07:59:02.011Z,7.67
2019-05-07T08:01:43.631Z,7.67
2019-05-07T08:04:12.230Z,7.00
2019-05-07T08:06:41.826Z,7.20
2019-05-07T08:09:09.432Z,6.87
2019-05-07T08:11:36.736Z,7.12
2019-05-07T08:14:06.083Z,6.90
2019-05-07T08:16:33.417Z,7.50
2019-05-07T08:19:03.093Z,8.50
2019-05-07T08:21:33.030Z,7.12
2019-05-07T08:23:59.432Z,7.90
2019-05-07T08:26:26.843Z,7.30
2019-05-07T08:28:53.932Z,6.45
2019-05-07T08:31:38.471Z,6.72
2019-05-07T08:34:14.066Z,5.87
2019-05-07T08:36:42.090Z,6.30
2019-05-07T08:39:09.477Z,5.92
2019-05-07T08:41:36.428Z,5.60
2019-05-07T08:44:12.302Z,5.15
2019-05-07T08:46:42.195Z,5.15
2019-05-07T08:49:12.105Z,5.25
2019-05-07T08:51:39.471Z,5.15
2019-05-07T08:54:06.737Z,5.10
2019-05-07T08:56:37.332Z,5.37
2019-05-07T08:59:05.969Z,5.42
2019-05-07T09:01:34.872Z,5.55
2019-05-07T09:04:02.589Z,5.87
2019-05-07T09:06:33.028Z,5.10
2019-05-07T09:09:08.205Z,5.33
2019-05-07T09:11:35.387Z,4.22
2019-05-07T09:14:02.594Z,4.65
2019-05-07T09:16:31.808Z,4.78
2019-05-07T09:18:58.547Z,4.90
2019-05-07T09:21:25.744Z,5.00
2019-05-07T09:23:52.847Z,4.90
2019-05-07T09:26:22.365Z,4.80
2019-05-07T09:29:08.000Z,4.90
2019-05-07T09:31:37.236Z,4.97
2019-05-07T09:34:04.320Z,4.60
2019-05-07T09:36:33.344Z,4.83
2019-05-07T09:39:02.676Z,5.45
2019-05-07T09:41:29.392Z,5.28
2019-05-07T09:43:57.183Z,5.78
2019-05-07T09:46:25.091Z,5.25
2019-05-07T09:48:52.413Z,5.85
2019-05-07T09:51:19.731Z,6.22
2019-05-07T09:53:46.988Z,6.22
2019-05-07T09:56:14.187Z,6.12
2019-05-07T09:58:42.598Z,6.28
2019-05-07T10:01:12.393Z,5.50
2019-05-07T10:03:39.177Z,6.00
2019-05-07T10:06:06.550Z,6.47
2019-05-07T10:08:33.735Z,6.65
2019-05-07T10:11:02.777Z,8.83
2019-05-07T10:13:30.160Z,7.22
2019-05-07T10:15:58.005Z,5.90
2019-05-07T10:18:25.283Z,7.42
2019-05-07T10:20:53.053Z,6.08
2019-05-07T10:23:22.950Z,6.92
2019-05-07T10:25:52.300Z,6.62
2019-05-07T10:28:22.676Z,5.75
2019-05-07T10:30:52.084Z,8.40
2019-05-07T10:33:19.975Z,8.78
2019-05-07T10:35:47.475Z,6.10
2019-05-07T10:38:14.984Z,7.90
2019-05-07T10:40:42.301Z,7.10
2019-05-07T10:43:09.505Z,7.83
2019-05-07T10:45:53.320Z,15.98
2019-05-07T10:48:25.571Z,16.00
2019-05-07T10:50:55.052Z,13.72
2019-05-07T10:53:22.962Z,17.12
2019-05-07T10:55:50.185Z,22.30
2019-05-07T10:58:17.682Z,16.27
2019-05-07T11:00:44.873Z,13.05
2019-05-07T11:03:12.642Z,13.58
2019-05-07T11:05:41.904Z,7.22
2019-05-07T11:08:09.760Z,5.90
2019-05-07T11:10:36.706Z,6.15
2019-05-07T11:13:03.844Z,5.58
2019-05-07T11:15:32.727Z,5.90
2019-05-07T11:18:21.718Z,6.80
2019-05-07T11:20:50.475Z,5.92
2019-05-07T11:23:17.797Z,6.28
2019-05-07T11:25:45.085Z,6.40
2019-05-07T11:28:12.504Z,6.15
2019-05-07T11:30:42.646Z,8.03
2019-05-07T11:33:09.778Z,6.37
2019-05-07T11:35:36.980Z,6.80
2019-05-07T11:38:17.764Z,8.05
2019-05-07T11:40:34.890Z,5.67
2019-05-07T11:43:13.067Z,5.28
2019-05-07T11:45:48.604Z,6.25
2019-05-07T11:48:17.603Z,5.72
2019-05-07T11:51:03.748Z,6.10
2019-05-07T11:53:30.055Z,6.30
2019-05-07T11:55:57.271Z,8.83
2019-05-07T11:58:24.195Z,10.00
2019-05-07T12:00:51.509Z,7.53
2019-05-07T12:03:18.734Z,7.45
2019-05-07T12:05:46.504Z,8.05
2019-05-07T12:08:13.757Z,9.43
2019-05-07T12:10:40.897Z,9.95
2019-05-07T12:13:07.981Z,9.25
2019-05-07T12:15:36.512Z,9.65
2019-05-07T12:18:03.899Z,7.75
2019-05-07T12:20:32.416Z,7.25
2019-05-07T12:22:59.895Z,6.58
2019-05-07T12:25:28.743Z,9.38
2019-05-07T12:27:55.990Z,7.15
2019-05-07T12:30:35.162Z,5.78
2019-05-07T12:33:18.939Z,5.97
2019-05-07T12:35:46.055Z,7.72
2019-05-07T12:38:13.186Z,7.55
2019-05-07T12:40:41.965Z,7.22
2019-05-07T12:43:10.582Z,11.55
2019-05-07T12:45:38.026Z,13.85
2019-05-07T12:48:05.220Z,6.87
2019-05-07T12:50:32.837Z,10.00
2019-05-07T12:53:08.570Z,13.40
2019-05-07T12:55:49.433Z,7.53
2019-05-07T12:58:16.338Z,10.50
2019-05-07T13:00:54.513Z,9.58
2019-05-07T13:03:27.838Z,10.53
2019-05-07T13:05:55.149Z,22.62
2019-05-07T13:08:23.043Z,22.07
2019-05-07T13:10:51.876Z,22.60
2019-05-07T13:13:19.521Z,19.48
2019-05-07T13:15:46.650Z,17.62
2019-05-07T13:18:13.884Z,24.47
2019-05-07T13:20:41.358Z,27.87
2019-05-07T13:23:08.361Z,15.53
2019-05-07T13:25:35.782Z,14.60
2019-05-07T13:28:03.142Z,21.33
2019-05-07T13:30:30.423Z,20.97
2019-05-07T13:32:58.377Z,21.42
2019-05-07T13:35:26.239Z,23.30
2019-05-07T13:38:02.416Z,18.12
2019-05-07T13:40:35.878Z,28.70
2019-05-07T13:43:15.645Z,22.00
2019-05-07T13:45:44.631Z,17.20
2019-05-07T13:48:18.266Z,13.28
2019-05-07T13:50:45.615Z,16.35
2019-05-07T13:53:13.702Z,12.75
2019-05-07T13:55:42.366Z,10.30
2019-05-07T13:58:09.567Z,9.30
2019-05-07T14:00:44.421Z,11.88
2019-05-07T14:03:12.113Z,10.45
2019-05-07T14:05:39.487Z,9.90
2019-05-07T14:08:07.149Z,7.17
2019-05-07T14:10:34.525Z,10.72
2019-05-07T14:13:11.157Z,18.55
2019-05-07T14:15:32.093Z,9.15
2019-05-07T14:18:02.118Z,9.40
2019-05-07T14:20:29.163Z,6.75
2019-05-07T14:22:56.447Z,6.50
2019-05-07T14:25:24.120Z,7.20
2019-05-07T14:27:52.628Z,6.72
2019-05-07T14:30:21.689Z,7.10
2019-05-07T14:32:54.567Z,7.20
2019-05-07T14:35:22.712Z,7.08
2019-05-07T14:37:52.356Z,6.53
2019-05-07T14:40:19.772Z,6.62
2019-05-07T14:42:54.465Z,7.58
2019-05-07T14:45:23.764Z,7.33
2019-05-07T14:47:52.281Z,8.25
2019-05-07T14:50:19.991Z,8.95
2019-05-07T14:52:47.096Z,8.38
2019-05-07T14:55:14.701Z,10.30
2019-05-07T14:57:42.224Z,11.20
2019-05-07T15:00:12.210Z,12.35
2019-05-07T15:02:41.944Z,10.98
2019-05-07T15:05:09.055Z,10.85
2019-05-07T15:07:36.237Z,10.20
2019-05-07T15:10:06.179Z,10.95
2019-05-07T15:12:33.386Z,10.38
2019-05-07T15:15:02.170Z,10.18
2019-05-07T15:17:32.567Z,10.10
2019-05-07T15:20:00.039Z,12.25
2019-05-07T15:22:49.095Z,11.43
2019-05-07T15:25:12.354Z,12.63
2019-05-07T15:27:39.696Z,29.57
2019-05-07T15:30:07.576Z,33.53
2019-05-07T15:32:34.769Z,29.45
2019-05-07T15:35:03.501Z,31.05
2019-05-07T15:37:32.227Z,32.93
2019-05-07T15:40:02.234Z,27.22
2019-05-07T15:42:29.214Z,48.08
2019-05-07T15:44:56.683Z,22.02
2019-05-07T15:47:28.725Z,11.65
2019-05-07T15:49:55.746Z,11.05
2019-05-07T15:52:34.027Z,26.90
2019-05-07T15:55:02.727Z,9.95
2019-05-07T15:57:29.993Z,9.80
2019-05-07T16:00:05.189Z,21.25
2019-05-07T16:02:40.270Z,21.45
2019-05-07T16:05:07.884Z,29.60
2019-05-07T16:07:35.805Z,20.30
2019-05-07T16:10:03.883Z,51.60
2019-05-07T16:12:32.039Z,55.45
2019-05-07T16:14:59.347Z,16.82
2019-05-07T16:17:28.984Z,10.15
2019-05-07T16:19:56.098Z,11.08
2019-05-07T16:22:27.987Z,13.75
2019-05-07T16:24:55.102Z,7.00
2019-05-07T16:27:22.500Z,6.95
2019-05-07T16:29:49.720Z,5.95
2019-05-07T16:32:17.058Z,7.90
2019-05-07T16:34:44.082Z,9.18
2019-05-07T16:37:12.308Z,9.43
2019-05-07T16:39:39.578Z,11.15
2019-05-07T16:42:06.709Z,8.95
2019-05-07T16:44:33.956Z,7.17
2019-05-07T16:47:02.671Z,8.75
2019-05-07T16:49:31.720Z,8.70
2019-05-07T16:51:58.698Z,9.50
2019-05-07T16:54:26.227Z,9.48
2019-05-07T16:57:12.173Z,8.10
2019-05-07T16:59:39.629Z,8.18
2019-05-07T17:02:08.597Z,10.50
2019-05-07T17:04:35.396Z,11.70
2019-05-07T17:07:04.514Z,14.07
2019-05-07T17:09:32.264Z,17.35
2019-05-07T17:12:02.497Z,17.95
2019-05-07T17:14:29.793Z,15.32
2019-05-07T17:16:56.814Z,21.05
2019-05-07T17:19:23.761Z,17.70
2019-05-07T17:21:52.033Z,14.90
2019-05-07T17:24:19.221Z,21.73
2019-05-07T17:26:46.168Z,30.05
2019-05-07T17:29:13.247Z,45.33
2019-05-07T17:31:42.255Z,48.15
2019-05-07T17:34:09.202Z,50.75
2019-05-07T17:36:36.079Z,40.17
2019-05-07T17:39:05.801Z,59.23
2019-05-07T17:41:33.183Z,44.90
2019-05-07T17:44:02.430Z,49.42
2019-05-07T17:46:28.871Z,53.60
2019-05-07T17:48:55.895Z,80.20
2019-05-07T17:51:43.015Z,78.85
2019-05-07T17:54:13.225Z,64.10
2019-05-07T17:56:42.183Z,53.42
2019-05-07T17:59:12.004Z,52.93
2019-05-07T18:01:57.203Z,54.00
2019-05-07T18:04:24.163Z,85.97
2019-05-07T18:06:52.229Z,56.73
2019-05-07T18:09:19.651Z,36.98
2019-05-07T18:11:46.860Z,31.45
2019-05-07T18:14:13.880Z,28.57
2019-05-07T18:16:48.803Z,37.98
2019-05-07T18:19:15.936Z,38.40
2019-05-07T18:21:42.878Z,39.75
2019-05-07T18:24:13.564Z,40.33
2019-05-07T18:26:38.823Z,36.85
2019-05-07T18:29:05.817Z,45.95
2019-05-07T18:31:50.183Z,68.65
2019-05-07T18:34:17.082Z,48.58
2019-05-07T18:36:44.501Z,47.85
2019-05-07T18:39:11.608Z,51.50
2019-05-07T18:41:38.635Z,46.75
2019-05-07T18:44:12.475Z,43.00
2019-05-07T18:46:34.649Z,43.98
2019-05-07T18:49:03.349Z,42.80
2019-05-07T18:51:32.181Z,42.83
2019-05-07T18:53:59.347Z,42.78
2019-05-07T18:56:26.583Z,41.18
2019-05-07T18:58:53.527Z,42.20
2019-05-07T19:01:22.607Z,47.10
2019-05-07T19:03:49.994Z,45.80
2019-05-07T19:06:17.170Z,45.40
2019-05-07T19:08:46.477Z,46.83
2019-05-07T19:11:13.649Z,46.77
2019-05-07T19:13:42.015Z,43.83
2019-05-07T19:16:09.293Z,43.70
2019-05-07T19:18:36.404Z,43.13
2019-05-07T19:21:06.669Z,39.48
2019-05-07T19:23:33.094Z,37.20
2019-05-07T19:26:02.343Z,31.60
2019-05-07T19:28:29.248Z,30.92
2019-05-07T19:30:56.424Z,28.50
2019-05-07T19:33:27.004Z,27.32
2019-05-07T19:35:52.932Z,25.35
2019-05-07T19:38:20.103Z,25.88
2019-05-07T19:40:47.275Z,40.30
2019-05-07T19:43:14.400Z,45.45
2019-05-07T19:45:41.896Z,45.88
2019-05-07T19:48:08.977Z,43.13
2019-05-07T19:50:36.219Z,44.18
2019-05-07T19:53:03.439Z,42.35
2019-05-07T19:55:32.921Z,41.77
2019-05-07T19:58:01.945Z,42.88
2019-05-07T20:00:29.143Z,41.30
2019-05-07T20:02:58.484Z,42.53
2019-05-07T20:05:25.753Z,43.13
2019-05-07T20:07:56.137Z,44.77
2019-05-07T20:10:29.859Z,42.85
2019-05-07T20:12:56.924Z,42.62
2019-05-07T20:15:24.132Z,41.90
2019-05-07T20:17:52.640Z,42.80
2019-05-07T20:20:22.018Z,43.02
2019-05-07T20:22:49.141Z,43.33
2019-05-07T20:25:19.098Z,46.85
2019-05-07T20:27:45.035Z,52.10
2019-05-07T20:30:12.357Z,52.17
2019-05-07T20:32:39.617Z,53.08
2019-05-07T20:35:06.927Z,47.13
2019-05-07T20:37:33.999Z,45.38
2019-05-07T20:40:02.990Z,45.40
2019-05-07T20:42:32.211Z,45.58
2019-05-07T20:44:59.305Z,49.05
2019-05-07T20:47:27.064Z,50.58
2019-05-07T20:49:55.345Z,51.60
2019-05-07T20:52:22.923Z,52.58
2019-05-07T20:54:52.800Z,52.33
2019-05-07T20:57:22.502Z,53.52
2019-05-07T20:59:49.575Z,55.38
2019-05-07T21:02:16.533Z,54.33
2019-05-07T21:04:43.372Z,52.55
2019-05-07T21:07:11.885Z,46.65
2019-05-07T21:09:38.995Z,41.08
2019-05-07T21:12:06.313Z,43.05
2019-05-07T21:14:33.792Z,43.20
2019-05-07T21:17:00.906Z,43.40
2019-05-07T21:19:28.061Z,44.58
2019-05-07T21:21:55.258Z,43.65
2019-05-07T21:24:22.701Z,43.13
2019-05-07T21:26:49.999Z,40.45
2019-05-07T21:29:17.191Z,37.45
2019-05-07T21:31:44.196Z,35.90
2019-05-07T21:34:12.380Z,35.75
2019-05-07T21:36:39.844Z,32.78
2019-05-07T21:39:06.997Z,31.87
2019-05-07T21:41:33.932Z,29.40
2019-05-07T21:44:00.839Z,27.60
2019-05-07T21:46:28.075Z,28.45
2019-05-07T21:48:55.093Z,27.80
2019-05-07T21:51:22.839Z,27.40
2019-05-07T21:53:54.857Z,25.20
2019-05-07T21:56:23.657Z,24.25
2019-05-07T21:58:54.148Z,24.05
2019-05-07T22:01:26.517Z,22.22
2019-05-07T22:03:56.107Z,23.27
2019-05-07T22:06:23.650Z,22.90
2019-05-07T22:08:54.458Z,22.00
2019-05-07T22:11:19.798Z,20.95
2019-05-07T22:13:46.859Z,24.00
2019-05-07T22:16:14.003Z,26.23
2019-05-07T22:18:42.629Z,26.77
2019-05-07T22:21:12.349Z,25.85
2019-05-07T22:23:38.995Z,26.30
2019-05-07T22:26:19.010Z,26.75
2019-05-07T22:28:35.714Z,26.05
2019-05-07T22:31:05.686Z,26.57
2019-05-07T22:33:34.617Z,28.02
2019-05-07T22:36:02.869Z,27.35
2019-05-07T22:38:32.204Z,24.95
2019-05-07T22:40:58.876Z,23.07
2019-05-07T22:43:25.814Z,24.57
2019-05-07T22:45:52.861Z,24.12
2019-05-07T22:48:19.775Z,24.12
2019-05-07T22:50:46.786Z,24.57
2019-05-07T22:53:14.220Z,24.40
2019-05-07T22:55:41.883Z,25.82
2019-05-07T22:58:12.350Z,23.75
2019-05-07T23:00:42.758Z,22.50
2019-05-07T23:03:12.347Z,22.20
2019-05-07T23:05:39.743Z,22.13
2019-05-07T23:08:06.866Z,24.55
2019-05-07T23:10:34.073Z,24.12
2019-05-07T23:13:02.262Z,24.82
2019-05-07T23:15:29.501Z,24.07
2019-05-07T23:17:56.747Z,24.67
2019-05-07T23:20:24.480Z,24.75
2019-05-07T23:22:52.091Z,24.90
2019-05-07T23:25:19.207Z,25.40
2019-05-07T23:27:46.147Z,23.57
2019-05-07T23:30:13.545Z,22.22
2019-05-07T23:32:40.658Z,22.80
2019-05-07T23:35:12.634Z,23.00
2019-05-07T23:37:39.588Z,22.60
2019-05-07T23:40:25.563Z,24.45
2019-05-07T23:42:54.484Z,23.70
2019-05-07T23:45:22.166Z,23.42
2019-05-07T23:47:49.160Z,25.45
2019-05-07T23:50:16.338Z,25.43
2019-05-07T23:52:44.174Z,25.30
2019-05-07T23:55:12.204Z,24.80
2019-05-07T23:57:39.295Z,23.52
